createdAt,value
2018-08-06T00:00:16.920Z,26.50
2018-08-06T00:02:45.489Z,26.40
2018-08-06T00:05:14.091Z,26.40
2018-08-06T00:07:42.681Z,26.40
2018-08-06T00:10:15.303Z,26.40
2018-08-06T00:12:44.067Z,26.40
2018-08-06T00:15:13.849Z,26.30
2018-08-06T00:17:42.738Z,26.30
2018-08-06T00:20:12.390Z,26.30
2018-08-06T00:22:41.414Z,26.30
2018-08-06T00:27:39.778Z,26.20
2018-08-06T00:30:12.968Z,26.20
2018-08-06T00:32:42.477Z,26.20
2018-08-06T00:35:11.751Z,26.10
2018-08-06T00:37:40.905Z,26.10
2018-08-06T00:40:14.239Z,26.10
2018-08-06T00:42:43.696Z,26.10
2018-08-06T00:45:14.583Z,26.00
2018-08-06T00:47:43.499Z,26.00
2018-08-06T00:50:12.502Z,26.00
2018-08-06T00:52:41.089Z,26.00
2018-08-06T00:55:12.162Z,25.90
2018-08-06T00:57:41.106Z,25.90
2018-08-06T01:00:12.593Z,25.90
2018-08-06T01:02:41.222Z,25.90
2018-08-06T01:05:11.271Z,25.90
2018-08-06T01:07:40.555Z,25.80
2018-08-06T01:10:11.313Z,25.80
2018-08-06T01:12:40.693Z,25.80
2018-08-06T01:15:11.025Z,25.70
2018-08-06T01:17:39.932Z,25.70
2018-08-06T01:20:10.586Z,25.70
2018-08-06T01:22:39.574Z,25.70
2018-08-06T01:25:08.217Z,25.70
2018-08-06T01:27:37.433Z,25.60
2018-08-06T01:30:07.501Z,25.60
2018-08-06T01:32:36.430Z,25.60
2018-08-06T01:35:05.639Z,25.60
2018-08-06T01:37:34.362Z,25.50
2018-08-06T01:40:02.897Z,25.50
2018-08-06T01:42:31.519Z,25.50
2018-08-06T01:45:00.052Z,25.50
2018-08-06T01:47:28.662Z,25.50
2018-08-06T01:49:57.213Z,25.50
2018-08-06T01:52:25.775Z,25.40
2018-08-06T01:54:54.405Z,25.40
2018-08-06T01:57:22.966Z,25.40
2018-08-06T01:59:51.538Z,25.40
2018-08-06T02:02:20.079Z,25.30
2018-08-06T02:04:48.605Z,25.30
2018-08-06T02:07:17.154Z,25.30
2018-08-06T02:09:45.725Z,25.30
2018-08-06T02:12:14.278Z,25.20
2018-08-06T02:14:42.797Z,25.20
2018-08-06T02:17:11.338Z,25.20
2018-08-06T02:19:39.892Z,25.20
2018-08-06T02:22:08.423Z,25.20
2018-08-06T02:24:37.017Z,25.20
2018-08-06T02:27:06.497Z,25.10
2018-08-06T02:29:35.066Z,25.10
2018-08-06T02:32:03.647Z,25.10
2018-08-06T02:34:32.191Z,25.10
2018-08-06T02:37:00.721Z,25.00
2018-08-06T02:39:29.281Z,25.00
2018-08-06T02:41:57.842Z,25.00
2018-08-06T02:44:26.392Z,24.90
2018-08-06T02:46:55.063Z,24.90
2018-08-06T02:49:23.674Z,24.90
2018-08-06T02:51:52.269Z,24.90
2018-08-06T02:54:20.792Z,24.90
2018-08-06T02:56:49.354Z,24.90
2018-08-06T02:59:17.942Z,24.80
2018-08-06T03:01:46.460Z,24.80
2018-08-06T03:04:14.984Z,24.80
2018-08-06T03:06:43.510Z,24.80
2018-08-06T03:09:12.878Z,24.80
2018-08-06T03:11:41.886Z,24.70
2018-08-06T03:14:10.584Z,24.70
2018-08-06T03:16:39.572Z,24.70
2018-08-06T03:19:08.326Z,24.70
2018-08-06T03:21:37.051Z,24.70
2018-08-06T03:24:05.713Z,24.60
2018-08-06T03:26:34.279Z,24.60
2018-08-06T03:29:03.631Z,24.60
2018-08-06T03:34:00.517Z,24.50
2018-08-06T03:36:29.105Z,24.50
2018-08-06T03:38:57.655Z,24.50
2018-08-06T03:41:26.327Z,24.50
2018-08-06T03:43:54.931Z,24.50
2018-08-06T03:46:23.550Z,24.50
2018-08-06T03:48:52.134Z,24.40
2018-08-06T03:51:20.667Z,24.40
2018-08-06T03:53:49.222Z,24.40
2018-08-06T03:56:20.244Z,24.30
2018-08-06T03:58:49.675Z,24.30
2018-08-06T04:01:18.197Z,24.30
2018-08-06T04:03:46.748Z,24.30
2018-08-06T04:06:15.527Z,24.30
2018-08-06T04:08:44.071Z,24.30
2018-08-06T04:11:12.878Z,24.30
2018-08-06T04:13:41.775Z,24.30
2018-08-06T04:16:10.346Z,24.20
2018-08-06T04:18:38.909Z,24.20
2018-08-06T04:21:07.538Z,24.20
2018-08-06T04:23:36.049Z,24.20
2018-08-06T04:26:04.765Z,24.20
2018-08-06T04:28:33.304Z,24.20
2018-08-06T04:31:01.830Z,24.10
2018-08-06T04:33:30.377Z,24.10
2018-08-06T04:35:58.989Z,24.10
2018-08-06T04:38:27.594Z,24.10
2018-08-06T04:40:56.137Z,24.10
2018-08-06T04:43:24.637Z,24.10
2018-08-06T04:45:53.207Z,24.10
2018-08-06T04:48:21.791Z,24.00
2018-08-06T04:50:50.339Z,24.00
2018-08-06T04:53:18.842Z,24.00
2018-08-06T04:55:47.428Z,24.00
2018-08-06T04:58:15.937Z,24.00
2018-08-06T05:00:44.497Z,24.00
2018-08-06T05:03:13.053Z,24.00
2018-08-06T05:05:41.614Z,23.90
2018-08-06T05:08:10.164Z,24.00
2018-08-06T05:10:38.715Z,23.90
2018-08-06T05:13:07.377Z,23.90
2018-08-06T05:15:35.950Z,23.90
2018-08-06T05:20:32.796Z,23.90
2018-08-06T05:23:02.162Z,23.90
2018-08-06T05:25:30.783Z,23.90
2018-08-06T05:27:59.317Z,23.90
2018-08-06T05:30:27.899Z,23.90
2018-08-06T05:32:56.462Z,23.90
2018-08-06T05:35:25.046Z,23.90
2018-08-06T05:37:53.616Z,23.90
2018-08-06T05:40:22.181Z,23.90
2018-08-06T05:42:50.742Z,23.90
2018-08-06T05:45:19.318Z,23.90
2018-08-06T05:47:47.901Z,23.90
2018-08-06T05:50:16.475Z,22.90
2018-08-06T05:52:45.048Z,23.00
2018-08-06T05:55:13.884Z,23.20
2018-08-06T05:57:42.830Z,23.40
2018-08-06T06:00:14.686Z,23.50
2018-08-06T06:02:43.960Z,23.60
2018-08-06T06:05:12.519Z,23.60
2018-08-06T06:07:41.693Z,23.70
2018-08-06T06:10:12.116Z,23.70
2018-08-06T06:12:40.658Z,23.70
2018-08-06T06:15:13.059Z,23.80
2018-08-06T06:17:42.181Z,23.80
2018-08-06T06:20:10.786Z,23.80
2018-08-06T06:22:39.341Z,23.90
2018-08-06T06:25:10.303Z,23.90
2018-08-06T06:27:38.886Z,23.90
2018-08-06T06:30:09.515Z,23.90
2018-08-06T06:32:38.063Z,23.90
2018-08-06T06:35:06.739Z,23.90
2018-08-06T06:37:35.343Z,24.00
2018-08-06T06:40:04.236Z,24.00
2018-08-06T06:42:32.797Z,24.00
2018-08-06T06:45:01.371Z,24.00
2018-08-06T06:47:29.990Z,24.00
2018-08-06T06:49:58.666Z,23.90
2018-08-06T06:52:27.225Z,23.90
2018-08-06T06:57:24.177Z,23.90
2018-08-06T06:59:52.819Z,24.00
2018-08-06T07:02:21.387Z,24.00
2018-08-06T07:04:49.945Z,24.00
2018-08-06T07:07:18.529Z,23.90
2018-08-06T07:09:47.078Z,23.90
2018-08-06T07:12:15.734Z,24.00
2018-08-06T07:14:44.317Z,23.90
2018-08-06T07:17:12.940Z,23.90
2018-08-06T07:19:41.513Z,23.90
2018-08-06T07:22:10.126Z,23.90
2018-08-06T07:24:38.701Z,23.90
2018-08-06T07:27:08.237Z,23.90
2018-08-06T07:29:36.832Z,24.00
2018-08-06T07:32:05.433Z,24.00
2018-08-06T07:34:33.982Z,24.00
2018-08-06T07:37:02.758Z,24.00
2018-08-06T07:39:31.333Z,24.00
2018-08-06T07:41:59.899Z,24.00
2018-08-06T07:44:28.488Z,24.00
2018-08-06T07:46:57.101Z,24.10
2018-08-06T07:49:25.653Z,24.10
2018-08-06T07:51:54.413Z,24.10
2018-08-06T07:54:23.066Z,24.10
2018-08-06T07:56:51.666Z,24.10
2018-08-06T07:59:20.290Z,24.10
2018-08-06T08:01:49.053Z,24.10
2018-08-06T08:04:17.709Z,24.10
2018-08-06T08:06:46.241Z,24.10
2018-08-06T08:09:14.864Z,24.20
2018-08-06T08:11:43.424Z,24.20
2018-08-06T08:14:12.201Z,24.20
2018-08-06T08:16:40.795Z,24.20
2018-08-06T08:19:09.416Z,24.20
2018-08-06T08:21:37.975Z,24.20
2018-08-06T08:24:06.577Z,24.20
2018-08-06T08:26:35.152Z,24.20
2018-08-06T08:31:32.137Z,24.30
2018-08-06T08:34:00.831Z,24.30
2018-08-06T08:36:29.285Z,24.30
2018-08-06T08:38:57.969Z,24.30
2018-08-06T08:41:26.495Z,24.30
2018-08-06T08:43:55.082Z,24.30
2018-08-06T08:46:23.622Z,24.40
2018-08-06T08:48:52.249Z,24.40
2018-08-06T08:51:20.935Z,24.40
2018-08-06T08:53:49.537Z,24.40
2018-08-06T08:56:18.089Z,24.40
2018-08-06T08:58:46.748Z,24.50
2018-08-06T09:03:43.473Z,24.50
2018-08-06T09:06:12.074Z,24.50
2018-08-06T09:08:40.630Z,24.50
2018-08-06T09:11:09.211Z,24.60
2018-08-06T09:13:37.851Z,24.50
2018-08-06T09:16:06.559Z,24.60
2018-08-06T09:18:35.126Z,24.60
2018-08-06T09:21:03.706Z,24.70
2018-08-06T09:23:32.304Z,24.60
2018-08-06T09:26:00.834Z,24.70
2018-08-06T09:28:29.432Z,24.80
2018-08-06T09:30:57.946Z,24.70
2018-08-06T09:33:26.501Z,26.00
2018-08-06T09:35:55.010Z,28.20
2018-08-06T09:38:24.286Z,29.40
2018-08-06T09:40:52.810Z,29.90
2018-08-06T09:43:21.338Z,30.20
2018-08-06T09:45:49.898Z,30.40
2018-08-06T09:48:18.559Z,30.70
2018-08-06T09:50:47.135Z,30.70
2018-08-06T09:53:15.657Z,30.70
2018-08-06T09:55:44.241Z,30.70
2018-08-06T09:58:12.841Z,30.80
2018-08-06T10:00:45.583Z,30.90
2018-08-06T10:03:14.142Z,30.90
2018-08-06T10:08:10.899Z,31.00
2018-08-06T10:10:39.453Z,31.10
2018-08-06T10:13:08.024Z,31.10
2018-08-06T10:15:36.571Z,31.00
2018-08-06T10:18:05.190Z,31.10
2018-08-06T10:20:33.741Z,31.10
2018-08-06T10:25:30.522Z,31.20
2018-08-06T10:27:59.058Z,31.30
2018-08-06T10:30:28.354Z,31.40
2018-08-06T10:32:56.826Z,31.50
2018-08-06T10:35:25.370Z,31.50
2018-08-06T10:37:53.877Z,31.50
2018-08-06T10:40:23.313Z,31.70
2018-08-06T10:42:52.158Z,31.70
2018-08-06T10:45:21.993Z,31.80
2018-08-06T10:47:51.070Z,31.80
2018-08-06T10:50:19.647Z,31.90
2018-08-06T10:52:48.207Z,32.00
2018-08-06T10:55:16.765Z,32.00
2018-08-06T10:57:45.946Z,32.10
2018-08-06T11:02:44.759Z,32.00
2018-08-06T11:05:14.453Z,32.00
2018-08-06T11:07:43.114Z,32.10
2018-08-06T11:10:16.493Z,32.10
2018-08-06T11:12:45.039Z,32.10
2018-08-06T11:15:17.289Z,32.20
2018-08-06T11:17:46.033Z,32.20
2018-08-06T11:20:15.526Z,32.10
2018-08-06T11:22:44.113Z,32.10
2018-08-06T11:25:14.221Z,32.10
2018-08-06T11:27:42.833Z,32.20
2018-08-06T11:30:14.227Z,32.30
2018-08-06T11:32:43.213Z,32.40
2018-08-06T11:35:13.028Z,32.40
2018-08-06T11:37:42.019Z,32.30
2018-08-06T11:40:11.970Z,32.30
2018-08-06T11:42:41.442Z,32.30
2018-08-06T11:45:15.242Z,32.50
2018-08-06T11:47:43.871Z,32.50
2018-08-06T11:50:12.439Z,32.50
2018-08-06T11:52:41.049Z,32.40
2018-08-06T11:55:10.292Z,32.40
2018-08-06T11:57:38.841Z,32.40
2018-08-06T12:00:17.218Z,32.30
2018-08-06T12:02:46.096Z,32.30
2018-08-06T12:05:14.732Z,32.30
2018-08-06T12:07:43.344Z,32.40
2018-08-06T12:10:14.005Z,32.50
2018-08-06T12:12:43.312Z,32.90
2018-08-06T12:15:12.246Z,33.10
2018-08-06T12:17:41.587Z,33.10
2018-08-06T12:20:16.227Z,32.90
2018-08-06T12:22:46.141Z,32.70
2018-08-06T12:25:15.618Z,32.60
2018-08-06T12:27:44.871Z,32.80
2018-08-06T12:30:18.262Z,32.90
2018-08-06T12:32:47.656Z,32.90
2018-08-06T12:35:16.818Z,33.00
2018-08-06T12:37:45.949Z,33.00
2018-08-06T12:40:15.828Z,33.00
2018-08-06T12:42:44.535Z,33.10
2018-08-06T12:45:14.037Z,33.10
2018-08-06T12:47:43.134Z,33.00
2018-08-06T12:50:13.034Z,33.10
2018-08-06T12:52:42.358Z,33.10
2018-08-06T12:55:12.528Z,33.20
2018-08-06T12:57:41.897Z,33.20
2018-08-06T13:00:21.512Z,33.20
2018-08-06T13:02:50.726Z,33.20
2018-08-06T13:05:20.211Z,33.20
2018-08-06T13:07:48.821Z,33.20
2018-08-06T13:10:17.361Z,33.10
2018-08-06T13:12:45.965Z,33.10
2018-08-06T13:15:15.466Z,33.10
2018-08-06T13:17:44.153Z,33.10
2018-08-06T13:20:12.745Z,33.00
2018-08-06T13:22:41.388Z,33.00
2018-08-06T13:25:11.465Z,32.90
2018-08-06T13:27:40.091Z,32.80
2018-08-06T13:32:37.617Z,32.60
2018-08-06T13:35:06.178Z,32.60
2018-08-06T13:37:34.853Z,32.50
2018-08-06T13:40:03.437Z,32.50
2018-08-06T13:42:32.054Z,32.50
2018-08-06T13:45:00.574Z,32.40
2018-08-06T13:47:29.122Z,32.40
2018-08-06T13:49:57.693Z,32.40
2018-08-06T13:52:26.310Z,32.40
2018-08-06T13:54:57.389Z,32.40
2018-08-06T13:57:28.180Z,32.40
2018-08-06T13:59:59.877Z,32.40
2018-08-06T14:02:31.530Z,32.40
2018-08-06T14:05:03.318Z,32.40
2018-08-06T14:07:34.227Z,32.40
2018-08-06T14:10:02.885Z,32.40
2018-08-06T14:12:31.401Z,32.40
2018-08-06T14:14:59.925Z,32.40
2018-08-06T14:17:30.961Z,32.40
2018-08-06T14:19:59.571Z,32.40
2018-08-06T14:22:28.137Z,32.40
2018-08-06T14:24:57.187Z,32.40
2018-08-06T14:27:25.731Z,32.40
2018-08-06T14:29:54.282Z,32.40
2018-08-06T14:32:22.816Z,32.40
2018-08-06T14:34:51.342Z,32.50
2018-08-06T14:37:19.932Z,32.40
2018-08-06T14:42:16.694Z,32.50
2018-08-06T14:44:45.258Z,32.40
2018-08-06T14:49:42.128Z,32.40
2018-08-06T14:52:10.692Z,32.40
2018-08-06T14:54:39.285Z,32.40
2018-08-06T14:57:07.812Z,32.40
2018-08-06T14:59:36.370Z,32.40
2018-08-06T15:02:04.912Z,32.40
2018-08-06T15:04:33.485Z,32.40
2018-08-06T15:07:02.072Z,32.40
2018-08-06T15:09:30.776Z,32.40
2018-08-06T15:11:59.645Z,32.40
2018-08-06T15:14:28.298Z,32.40
2018-08-06T15:16:57.052Z,32.40
2018-08-06T15:19:26.214Z,32.40
2018-08-06T15:21:54.918Z,32.40
2018-08-06T15:24:23.809Z,32.40
2018-08-06T15:26:52.470Z,32.40
2018-08-06T15:29:21.027Z,32.30
2018-08-06T15:31:49.713Z,32.40
2018-08-06T15:34:18.265Z,32.40
2018-08-06T15:36:46.908Z,32.30
2018-08-06T15:39:15.775Z,32.30
2018-08-06T15:44:13.647Z,32.30
2018-08-06T15:46:42.263Z,32.30
2018-08-06T15:49:10.781Z,32.30
2018-08-06T15:51:39.358Z,32.20
2018-08-06T15:54:08.521Z,32.20
2018-08-06T15:56:37.657Z,32.20
2018-08-06T15:59:06.281Z,32.20
2018-08-06T16:01:35.263Z,32.20
2018-08-06T16:04:04.469Z,32.20
2018-08-06T16:06:33.145Z,32.20
2018-08-06T16:09:01.726Z,32.20
2018-08-06T16:11:30.339Z,32.20
2018-08-06T16:16:27.164Z,32.20
2018-08-06T16:18:55.689Z,32.20
2018-08-06T16:21:24.282Z,32.20
2018-08-06T16:23:53.221Z,32.10
2018-08-06T16:26:21.843Z,32.10
2018-08-06T16:28:50.427Z,32.10
2018-08-06T16:31:18.978Z,32.10
2018-08-06T16:33:47.488Z,32.10
2018-08-06T16:36:16.034Z,32.00
2018-08-06T16:38:44.564Z,32.00
2018-08-06T16:41:13.153Z,32.00
2018-08-06T16:43:41.742Z,32.00
2018-08-06T16:46:10.256Z,32.00
2018-08-06T16:48:38.776Z,32.00
2018-08-06T16:51:07.314Z,31.90
2018-08-06T16:53:35.894Z,31.90
2018-08-06T16:56:04.479Z,31.90
2018-08-06T16:58:33.614Z,31.90
2018-08-06T17:01:02.263Z,31.90
2018-08-06T17:03:30.795Z,31.90
2018-08-06T17:05:59.351Z,31.80
2018-08-06T17:08:27.902Z,31.80
2018-08-06T17:10:56.493Z,31.80
2018-08-06T17:13:25.053Z,31.80
2018-08-06T17:18:21.902Z,31.80
2018-08-06T17:23:18.706Z,31.70
2018-08-06T17:25:47.298Z,31.70
2018-08-06T17:28:15.824Z,31.70
2018-08-06T17:30:44.490Z,31.70
2018-08-06T17:33:13.031Z,31.70
2018-08-06T17:35:41.569Z,31.70
2018-08-06T17:38:10.104Z,31.60
2018-08-06T17:40:38.661Z,31.60
2018-08-06T17:45:35.489Z,31.60
2018-08-06T17:48:08.695Z,31.60
2018-08-06T17:50:37.229Z,31.50
2018-08-06T17:53:06.654Z,31.50
2018-08-06T17:55:35.231Z,31.50
2018-08-06T17:58:03.855Z,31.50
2018-08-06T18:00:32.385Z,31.50
2018-08-06T18:03:01.153Z,31.40
2018-08-06T18:05:29.614Z,31.40
2018-08-06T18:10:26.346Z,31.40
2018-08-06T18:12:54.886Z,31.30
2018-08-06T18:15:23.409Z,31.30
2018-08-06T18:17:52.033Z,31.30
2018-08-06T18:20:20.564Z,31.30
2018-08-06T18:22:49.117Z,31.30
2018-08-06T18:25:19.046Z,31.30
2018-08-06T18:27:48.578Z,31.20
2018-08-06T18:30:21.553Z,31.20
2018-08-06T18:32:50.397Z,31.20
2018-08-06T18:35:19.837Z,31.10
2018-08-06T18:37:48.508Z,31.10
2018-08-06T18:40:18.635Z,31.10
2018-08-06T18:42:47.233Z,31.10
2018-08-06T18:45:17.226Z,31.10
2018-08-06T18:47:46.922Z,31.00
2018-08-06T18:52:45.418Z,31.00
2018-08-06T18:55:14.657Z,30.90
2018-08-06T18:57:43.619Z,30.90
2018-08-06T19:00:14.920Z,30.90
2018-08-06T19:02:43.602Z,30.90
2018-08-06T19:05:12.179Z,30.80
2018-08-06T19:07:41.069Z,30.80
2018-08-06T19:10:10.693Z,30.80
2018-08-06T19:12:44.551Z,30.80
2018-08-06T19:15:13.778Z,30.70
2018-08-06T19:17:47.715Z,30.70
2018-08-06T19:20:16.678Z,30.70
2018-08-06T19:22:45.487Z,30.70
2018-08-06T19:25:19.409Z,30.60
2018-08-06T19:27:48.184Z,30.60
2018-08-06T19:30:16.741Z,30.60
2018-08-06T19:32:45.340Z,30.60
2018-08-06T19:35:14.041Z,30.60
2018-08-06T19:37:46.046Z,30.50
2018-08-06T19:40:14.833Z,30.50
2018-08-06T19:42:48.722Z,30.50
2018-08-06T19:45:17.297Z,30.50
2018-08-06T19:47:45.948Z,30.40
2018-08-06T19:50:19.975Z,30.40
2018-08-06T19:52:48.469Z,30.40
2018-08-06T19:55:22.377Z,30.30
2018-08-06T19:57:50.948Z,30.30
2018-08-06T20:00:19.618Z,30.30
2018-08-06T20:02:48.181Z,30.20
2018-08-06T20:05:16.733Z,30.20
2018-08-06T20:07:45.346Z,30.20
2018-08-06T20:10:14.938Z,30.20
2018-08-06T20:12:43.479Z,30.10
2018-08-06T20:15:17.827Z,30.10
2018-08-06T20:17:46.840Z,30.10
2018-08-06T20:20:15.804Z,30.10
2018-08-06T20:22:44.777Z,30.00
2018-08-06T20:25:16.306Z,30.00
2018-08-06T20:30:14.950Z,30.00
2018-08-06T20:32:43.501Z,29.90
2018-08-06T20:35:14.396Z,29.90
2018-08-06T20:37:43.216Z,29.90
2018-08-06T20:40:12.237Z,29.90
2018-08-06T20:42:42.182Z,29.80
2018-08-06T20:45:14.435Z,29.80
2018-08-06T20:47:43.621Z,29.80
2018-08-06T20:50:15.902Z,29.80
2018-08-06T20:52:45.342Z,29.70
2018-08-06T20:55:13.950Z,29.70
2018-08-06T21:00:13.538Z,29.70
2018-08-06T21:02:42.152Z,29.60
2018-08-06T21:05:10.776Z,29.60
2018-08-06T21:07:39.798Z,29.60
2018-08-06T21:10:10.074Z,29.50
2018-08-06T21:12:38.909Z,29.50
2018-08-06T21:15:08.734Z,29.50
2018-08-06T21:17:37.794Z,29.50
2018-08-06T21:20:08.693Z,29.50
2018-08-06T21:22:37.278Z,29.40
2018-08-06T21:27:34.717Z,29.40
2018-08-06T21:30:03.360Z,29.30
2018-08-06T21:32:31.896Z,29.30
2018-08-06T21:35:00.457Z,29.30
2018-08-06T21:37:28.978Z,29.30
2018-08-06T21:39:57.503Z,29.20
2018-08-06T21:42:26.073Z,29.20
2018-08-06T21:44:54.593Z,29.20
2018-08-06T21:47:23.145Z,29.20
2018-08-06T21:49:51.648Z,29.10
2018-08-06T21:52:20.183Z,29.10
2018-08-06T21:54:48.726Z,29.10
2018-08-06T21:57:17.370Z,29.10
2018-08-06T21:59:45.874Z,29.00
2018-08-06T22:02:14.509Z,29.00
2018-08-06T22:04:43.052Z,29.00
2018-08-06T22:07:11.593Z,29.00
2018-08-06T22:09:40.154Z,28.90
2018-08-06T22:12:08.750Z,28.90
2018-08-06T22:14:37.361Z,28.90
2018-08-06T22:17:06.450Z,28.90
2018-08-06T22:19:35.002Z,28.90
2018-08-06T22:22:03.582Z,28.80
2018-08-06T22:24:32.143Z,28.80
2018-08-06T22:27:00.750Z,28.80
2018-08-06T22:29:29.311Z,28.80
2018-08-06T22:31:57.885Z,28.80
2018-08-06T22:34:26.406Z,28.80
2018-08-06T22:36:55.066Z,28.70
2018-08-06T22:39:23.618Z,28.70
2018-08-06T22:41:52.154Z,28.70
2018-08-06T22:44:20.711Z,28.60
2018-08-06T22:46:49.258Z,28.70
2018-08-06T22:49:17.785Z,28.60
2018-08-06T22:51:46.595Z,28.60
2018-08-06T22:54:15.113Z,28.60
2018-08-06T22:56:43.665Z,28.60
2018-08-06T22:59:12.201Z,28.60
2018-08-06T23:01:40.770Z,28.50
2018-08-06T23:04:09.363Z,28.50
2018-08-06T23:06:37.964Z,28.50
2018-08-06T23:09:09.452Z,28.50
2018-08-06T23:14:06.296Z,28.50
2018-08-06T23:16:34.873Z,28.50
2018-08-06T23:19:03.457Z,28.40
2018-08-06T23:21:32.263Z,28.40
2018-08-06T23:24:00.822Z,28.30
2018-08-06T23:26:29.336Z,28.30
2018-08-06T23:28:57.916Z,28.40
2018-08-06T23:31:26.449Z,28.30
2018-08-06T23:33:55.454Z,28.30
2018-08-06T23:36:23.962Z,28.30
2018-08-06T23:38:52.498Z,28.20
2018-08-06T23:41:21.217Z,28.20
2018-08-06T23:43:49.816Z,28.20
2018-08-06T23:46:18.361Z,28.20
2018-08-06T23:48:46.937Z,28.20
2018-08-06T23:51:15.489Z,28.10
2018-08-06T23:53:44.041Z,28.10
2018-08-06T23:56:12.566Z,28.10
2018-08-06T23:58:41.163Z,28.10
